sensor_id;sensor_type;location;lat;lon;timestamp;P1;durP1;ratioP1;P2;durP2;ratioP2
11185;SDS011;5649;52.422;13.754;2022-08-18T00:01:12;37.33;;;7.63;;
11185;SDS011;5649;52.422;13.754;2022-08-18T00:03:38;21.93;;;5.20;;
11185;SDS011;5649;52.422;13.754;2022-08-18T00:06:05;5.83;;;4.93;;
11185;SDS011;5649;52.422;13.754;2022-08-18T00:08:31;7.73;;;4.40;;
11185;SDS011;5649;52.422;13.754;2022-08-18T00:10:57;8.70;;;4.93;;
11185;SDS011;5649;52.422;13.754;2022-08-18T00:13:23;9.23;;;4.83;;
11185;SDS011;5649;52.422;13.754;2022-08-18T00:15:50;9.50;;;5.57;;
11185;SDS011;5649;52.422;13.754;2022-08-18T00:18:16;6.40;;;4.87;;
11185;SDS011;5649;52.422;13.754;2022-08-18T00:20:42;11.53;;;6.13;;
11185;SDS011;5649;52.422;13.754;2022-08-18T00:23:08;11.03;;;4.87;;
11185;SDS011;5649;52.422;13.754;2022-08-18T00:25:34;9.83;;;4.60;;
11185;SDS011;5649;52.422;13.754;2022-08-18T00:28:01;9.30;;;5.30;;
11185;SDS011;5649;52.422;13.754;2022-08-18T00:30:27;8.87;;;4.63;;
11185;SDS011;5649;52.422;13.754;2022-08-18T00:32:54;7.00;;;4.80;;
11185;SDS011;5649;52.422;13.754;2022-08-18T00:35:22;6.00;;;5.27;;
11185;SDS011;5649;52.422;13.754;2022-08-18T00:37:50;9.07;;;5.20;;
11185;SDS011;5649;52.422;13.754;2022-08-18T00:40:18;6.67;;;4.70;;
11185;SDS011;5649;52.422;13.754;2022-08-18T00:42:46;5.60;;;4.70;;
11185;SDS011;5649;52.422;13.754;2022-08-18T00:45:13;13.93;;;5.90;;
11185;SDS011;5649;52.422;13.754;2022-08-18T00:47:41;6.27;;;5.20;;
11185;SDS011;5649;52.422;13.754;2022-08-18T00:50:07;16.60;;;5.37;;
11185;SDS011;5649;52.422;13.754;2022-08-18T00:52:34;6.70;;;4.60;;
11185;SDS011;5649;52.422;13.754;2022-08-18T00:55:01;9.30;;;5.40;;
11185;SDS011;5649;52.422;13.754;2022-08-18T00:57:28;5.77;;;5.00;;
11185;SDS011;5649;52.422;13.754;2022-08-18T00:59:58;10.83;;;5.43;;
11185;SDS011;5649;52.422;13.754;2022-08-18T01:02:36;11.63;;;5.60;;
11185;SDS011;5649;52.422;13.754;2022-08-18T01:07:38;11.90;;;5.63;;
11185;SDS011;5649;52.422;13.754;2022-08-18T01:10:08;9.50;;;4.80;;
11185;SDS011;5649;52.422;13.754;2022-08-18T01:12:34;11.80;;;5.00;;
11185;SDS011;5649;52.422;13.754;2022-08-18T01:15:01;8.37;;;5.33;;
11185;SDS011;5649;52.422;13.754;2022-08-18T01:17:27;11.83;;;4.40;;
11185;SDS011;5649;52.422;13.754;2022-08-18T01:20:13;4.73;;;4.23;;
11185;SDS011;5649;52.422;13.754;2022-08-18T01:23:03;11.87;;;5.60;;
11185;SDS011;5649;52.422;13.754;2022-08-18T01:25:32;5.27;;;4.60;;
11185;SDS011;5649;52.422;13.754;2022-08-18T01:28:16;10.83;;;5.00;;
11185;SDS011;5649;52.422;13.754;2022-08-18T01:30:50;8.20;;;5.70;;
11185;SDS011;5649;52.422;13.754;2022-08-18T01:33:17;8.83;;;4.20;;
11185;SDS011;5649;52.422;13.754;2022-08-18T01:35:44;7.60;;;5.00;;
11185;SDS011;5649;52.422;13.754;2022-08-18T01:38:18;11.60;;;4.60;;
11185;SDS011;5649;52.422;13.754;2022-08-18T01:40:45;9.93;;;5.37;;
11185;SDS011;5649;52.422;13.754;2022-08-18T01:43:12;12.60;;;5.20;;
11185;SDS011;5649;52.422;13.754;2022-08-18T01:45:38;10.30;;;6.50;;
11185;SDS011;5649;52.422;13.754;2022-08-18T01:48:04;5.80;;;5.20;;
11185;SDS011;5649;52.422;13.754;2022-08-18T01:50:31;10.73;;;5.80;;
11185;SDS011;5649;52.422;13.754;2022-08-18T01:53:01;22.43;;;5.53;;
11185;SDS011;5649;52.422;13.754;2022-08-18T01:55:30;11.33;;;4.93;;
11185;SDS011;5649;52.422;13.754;2022-08-18T01:57:56;12.20;;;4.93;;
11185;SDS011;5649;52.422;13.754;2022-08-18T02:00:22;19.00;;;5.47;;
11185;SDS011;5649;52.422;13.754;2022-08-18T02:02:49;16.13;;;5.33;;
11185;SDS011;5649;52.422;13.754;2022-08-18T02:05:21;20.67;;;5.80;;
11185;SDS011;5649;52.422;13.754;2022-08-18T02:07:49;13.80;;;6.27;;
11185;SDS011;5649;52.422;13.754;2022-08-18T02:10:15;29.07;;;5.13;;
11185;SDS011;5649;52.422;13.754;2022-08-18T02:12:42;11.67;;;4.67;;
11185;SDS011;5649;52.422;13.754;2022-08-18T02:15:08;24.03;;;6.30;;
11185;SDS011;5649;52.422;13.754;2022-08-18T02:17:36;18.37;;;6.70;;
11185;SDS011;5649;52.422;13.754;2022-08-18T02:20:02;16.20;;;5.23;;
11185;SDS011;5649;52.422;13.754;2022-08-18T02:22:29;7.90;;;5.10;;
11185;SDS011;5649;52.422;13.754;2022-08-18T02:24:55;7.83;;;4.53;;
11185;SDS011;5649;52.422;13.754;2022-08-18T02:27:21;18.83;;;5.60;;
11185;SDS011;5649;52.422;13.754;2022-08-18T02:29:47;9.60;;;4.87;;
11185;SDS011;5649;52.422;13.754;2022-08-18T02:32:13;6.50;;;5.30;;
11185;SDS011;5649;52.422;13.754;2022-08-18T02:34:39;8.10;;;6.33;;
11185;SDS011;5649;52.422;13.754;2022-08-18T02:37:06;8.80;;;5.30;;
11185;SDS011;5649;52.422;13.754;2022-08-18T02:39:34;30.50;;;6.30;;
11185;SDS011;5649;52.422;13.754;2022-08-18T02:42:02;9.30;;;6.23;;
11185;SDS011;5649;52.422;13.754;2022-08-18T02:44:28;9.00;;;5.87;;
11185;SDS011;5649;52.422;13.754;2022-08-18T02:46:56;24.97;;;5.70;;
11185;SDS011;5649;52.422;13.754;2022-08-18T02:49:22;11.53;;;6.07;;
11185;SDS011;5649;52.422;13.754;2022-08-18T02:51:49;12.33;;;5.77;;
11185;SDS011;5649;52.422;13.754;2022-08-18T02:54:15;12.37;;;5.67;;
11185;SDS011;5649;52.422;13.754;2022-08-18T02:56:42;11.53;;;6.00;;
11185;SDS011;5649;52.422;13.754;2022-08-18T02:59:11;19.43;;;5.87;;
11185;SDS011;5649;52.422;13.754;2022-08-18T03:01:38;13.67;;;6.13;;
11185;SDS011;5649;52.422;13.754;2022-08-18T03:04:05;19.50;;;6.80;;
11185;SDS011;5649;52.422;13.754;2022-08-18T03:06:32;8.40;;;6.53;;
11185;SDS011;5649;52.422;13.754;2022-08-18T03:08:59;10.60;;;5.27;;
11185;SDS011;5649;52.422;13.754;2022-08-18T03:11:26;11.70;;;5.80;;
11185;SDS011;5649;52.422;13.754;2022-08-18T03:13:53;11.03;;;5.57;;
11185;SDS011;5649;52.422;13.754;2022-08-18T03:16:20;7.73;;;5.97;;
11185;SDS011;5649;52.422;13.754;2022-08-18T03:18:49;17.43;;;7.40;;
11185;SDS011;5649;52.422;13.754;2022-08-18T03:21:19;16.43;;;6.00;;
11185;SDS011;5649;52.422;13.754;2022-08-18T03:23:46;21.57;;;7.03;;
11185;SDS011;5649;52.422;13.754;2022-08-18T03:26:16;11.43;;;6.33;;
11185;SDS011;5649;52.422;13.754;2022-08-18T03:28:44;12.20;;;7.17;;
11185;SDS011;5649;52.422;13.754;2022-08-18T03:31:11;12.03;;;5.83;;
11185;SDS011;5649;52.422;13.754;2022-08-18T03:33:38;9.10;;;5.63;;
11185;SDS011;5649;52.422;13.754;2022-08-18T03:36:09;9.10;;;6.73;;
11185;SDS011;5649;52.422;13.754;2022-08-18T03:38:36;18.80;;;6.50;;
11185;SDS011;5649;52.422;13.754;2022-08-18T03:41:03;9.67;;;6.83;;
11185;SDS011;5649;52.422;13.754;2022-08-18T03:43:30;15.97;;;6.43;;
11185;SDS011;5649;52.422;13.754;2022-08-18T03:46:00;13.50;;;6.80;;
11185;SDS011;5649;52.422;13.754;2022-08-18T03:48:27;13.50;;;6.20;;
11185;SDS011;5649;52.422;13.754;2022-08-18T03:50:53;19.40;;;6.20;;
11185;SDS011;5649;52.422;13.754;2022-08-18T03:53:19;16.33;;;8.70;;
11185;SDS011;5649;52.422;13.754;2022-08-18T03:55:45;13.13;;;6.10;;
11185;SDS011;5649;52.422;13.754;2022-08-18T03:58:11;14.10;;;6.60;;
11185;SDS011;5649;52.422;13.754;2022-08-18T04:00:39;11.53;;;6.60;;
11185;SDS011;5649;52.422;13.754;2022-08-18T04:03:05;26.93;;;7.07;;
11185;SDS011;5649;52.422;13.754;2022-08-18T04:05:32;10.33;;;7.07;;
11185;SDS011;5649;52.422;13.754;2022-08-18T04:07:59;13.80;;;6.90;;
11185;SDS011;5649;52.422;13.754;2022-08-18T04:10:26;18.60;;;7.10;;
11185;SDS011;5649;52.422;13.754;2022-08-18T04:12:52;14.13;;;7.63;;
11185;SDS011;5649;52.422;13.754;2022-08-18T04:15:18;10.37;;;6.83;;
11185;SDS011;5649;52.422;13.754;2022-08-18T04:17:44;11.60;;;6.00;;
11185;SDS011;5649;52.422;13.754;2022-08-18T04:20:11;10.97;;;7.27;;
11185;SDS011;5649;52.422;13.754;2022-08-18T04:22:38;9.87;;;6.50;;
11185;SDS011;5649;52.422;13.754;2022-08-18T04:25:04;7.73;;;5.80;;
11185;SDS011;5649;52.422;13.754;2022-08-18T04:27:33;8.90;;;6.50;;
11185;SDS011;5649;52.422;13.754;2022-08-18T04:29:59;15.10;;;6.33;;
11185;SDS011;5649;52.422;13.754;2022-08-18T04:32:25;20.40;;;8.20;;
11185;SDS011;5649;52.422;13.754;2022-08-18T04:34:51;18.30;;;6.87;;
11185;SDS011;5649;52.422;13.754;2022-08-18T04:37:18;10.47;;;6.90;;
11185;SDS011;5649;52.422;13.754;2022-08-18T04:39:44;9.90;;;6.57;;
11185;SDS011;5649;52.422;13.754;2022-08-18T04:42:11;14.23;;;6.60;;
11185;SDS011;5649;52.422;13.754;2022-08-18T04:44:37;8.60;;;6.20;;
11185;SDS011;5649;52.422;13.754;2022-08-18T04:47:03;23.97;;;6.83;;
11185;SDS011;5649;52.422;13.754;2022-08-18T04:49:30;11.00;;;7.17;;
11185;SDS011;5649;52.422;13.754;2022-08-18T04:51:58;10.80;;;6.13;;
11185;SDS011;5649;52.422;13.754;2022-08-18T04:54:42;31.10;;;7.23;;
11185;SDS011;5649;52.422;13.754;2022-08-18T04:57:19;13.80;;;6.93;;
11185;SDS011;5649;52.422;13.754;2022-08-18T04:59:47;13.27;;;7.03;;
11185;SDS011;5649;52.422;13.754;2022-08-18T05:02:13;12.37;;;7.00;;
11185;SDS011;5649;52.422;13.754;2022-08-18T05:04:40;11.60;;;6.90;;
11185;SDS011;5649;52.422;13.754;2022-08-18T05:07:08;10.30;;;7.33;;
11185;SDS011;5649;52.422;13.754;2022-08-18T05:09:34;9.37;;;6.70;;
11185;SDS011;5649;52.422;13.754;2022-08-18T05:12:01;15.03;;;7.13;;
11185;SDS011;5649;52.422;13.754;2022-08-18T05:14:27;18.60;;;7.83;;
11185;SDS011;5649;52.422;13.754;2022-08-18T05:16:56;16.77;;;8.37;;
11185;SDS011;5649;52.422;13.754;2022-08-18T05:19:22;14.83;;;7.87;;
11185;SDS011;5649;52.422;13.754;2022-08-18T05:21:50;13.07;;;6.93;;
11185;SDS011;5649;52.422;13.754;2022-08-18T05:24:17;17.50;;;7.20;;
11185;SDS011;5649;52.422;13.754;2022-08-18T05:26:43;9.30;;;6.57;;
11185;SDS011;5649;52.422;13.754;2022-08-18T05:29:10;23.83;;;8.13;;
11185;SDS011;5649;52.422;13.754;2022-08-18T05:31:36;9.83;;;7.57;;
11185;SDS011;5649;52.422;13.754;2022-08-18T05:34:02;10.10;;;6.50;;
11185;SDS011;5649;52.422;13.754;2022-08-18T05:39:00;12.17;;;7.40;;
11185;SDS011;5649;52.422;13.754;2022-08-18T05:41:29;26.00;;;7.13;;
11185;SDS011;5649;52.422;13.754;2022-08-18T05:43:58;11.00;;;7.80;;
11185;SDS011;5649;52.422;13.754;2022-08-18T05:46:33;35.47;;;7.53;;
11185;SDS011;5649;52.422;13.754;2022-08-18T05:49:02;11.77;;;6.67;;
11185;SDS011;5649;52.422;13.754;2022-08-18T05:51:30;30.93;;;6.97;;
11185;SDS011;5649;52.422;13.754;2022-08-18T05:53:58;14.83;;;7.37;;
11185;SDS011;5649;52.422;13.754;2022-08-18T05:56:42;12.03;;;6.47;;
11185;SDS011;5649;52.422;13.754;2022-08-18T05:59:34;29.03;;;6.80;;
11185;SDS011;5649;52.422;13.754;2022-08-18T06:02:46;16.07;;;7.50;;
11185;SDS011;5649;52.422;13.754;2022-08-18T06:04:56;16.43;;;7.07;;
11185;SDS011;5649;52.422;13.754;2022-08-18T06:07:40;19.97;;;7.13;;
11185;SDS011;5649;52.422;13.754;2022-08-18T06:10:07;9.70;;;7.00;;
11185;SDS011;5649;52.422;13.754;2022-08-18T06:12:43;13.00;;;6.97;;
11185;SDS011;5649;52.422;13.754;2022-08-18T06:15:16;17.03;;;9.30;;
11185;SDS011;5649;52.422;13.754;2022-08-18T06:22:50;18.10;;;7.23;;
11185;SDS011;5649;52.422;13.754;2022-08-18T06:25:29;10.43;;;7.40;;
11185;SDS011;5649;52.422;13.754;2022-08-18T06:35:35;20.80;;;7.10;;
11185;SDS011;5649;52.422;13.754;2022-08-18T06:41:11;11.23;;;7.33;;
11185;SDS011;5649;52.422;13.754;2022-08-18T06:43:39;13.30;;;6.90;;
11185;SDS011;5649;52.422;13.754;2022-08-18T06:46:10;15.63;;;7.57;;
11185;SDS011;5649;52.422;13.754;2022-08-18T06:48:46;17.33;;;7.80;;
11185;SDS011;5649;52.422;13.754;2022-08-18T06:51:15;17.13;;;7.93;;
11185;SDS011;5649;52.422;13.754;2022-08-18T06:53:51;17.90;;;7.87;;
11185;SDS011;5649;52.422;13.754;2022-08-18T07:01:40;17.93;;;7.30;;
11185;SDS011;5649;52.422;13.754;2022-08-18T07:04:07;10.00;;;7.37;;
11185;SDS011;5649;52.422;13.754;2022-08-18T07:06:33;20.30;;;7.27;;
11185;SDS011;5649;52.422;13.754;2022-08-18T07:09:20;17.93;;;8.10;;
11185;SDS011;5649;52.422;13.754;2022-08-18T07:11:56;14.33;;;7.10;;
11185;SDS011;5649;52.422;13.754;2022-08-18T07:14:23;21.10;;;7.33;;
11185;SDS011;5649;52.422;13.754;2022-08-18T07:16:50;14.57;;;7.47;;
11185;SDS011;5649;52.422;13.754;2022-08-18T07:19:30;12.70;;;7.63;;
11185;SDS011;5649;52.422;13.754;2022-08-18T07:22:11;10.33;;;7.33;;
11185;SDS011;5649;52.422;13.754;2022-08-18T07:24:42;13.50;;;7.40;;
11185;SDS011;5649;52.422;13.754;2022-08-18T07:27:10;10.50;;;8.20;;
11185;SDS011;5649;52.422;13.754;2022-08-18T07:30:24;12.63;;;7.20;;
11185;SDS011;5649;52.422;13.754;2022-08-18T07:32:47;20.70;;;7.40;;
11185;SDS011;5649;52.422;13.754;2022-08-18T07:35:16;9.87;;;7.70;;
11185;SDS011;5649;52.422;13.754;2022-08-18T07:37:45;13.00;;;7.67;;
11185;SDS011;5649;52.422;13.754;2022-08-18T07:50:09;10.80;;;6.73;;
11185;SDS011;5649;52.422;13.754;2022-08-18T07:55:05;13.13;;;7.53;;
11185;SDS011;5649;52.422;13.754;2022-08-18T08:05:34;16.20;;;6.13;;
11185;SDS011;5649;52.422;13.754;2022-08-18T08:08:01;25.43;;;7.70;;
11185;SDS011;5649;52.422;13.754;2022-08-18T08:13:11;16.57;;;8.83;;
11185;SDS011;5649;52.422;13.754;2022-08-18T08:20:53;13.47;;;6.80;;
11185;SDS011;5649;52.422;13.754;2022-08-18T08:28:47;12.13;;;6.63;;
11185;SDS011;5649;52.422;13.754;2022-08-18T08:31:23;16.00;;;6.97;;
11185;SDS011;5649;52.422;13.754;2022-08-18T08:34:01;10.00;;;6.53;;
11185;SDS011;5649;52.422;13.754;2022-08-18T08:36:30;16.30;;;6.53;;
11185;SDS011;5649;52.422;13.754;2022-08-18T08:38:58;9.50;;;6.40;;
11185;SDS011;5649;52.422;13.754;2022-08-18T08:44:19;10.00;;;6.40;;
11185;SDS011;5649;52.422;13.754;2022-08-18T08:46:48;19.03;;;5.63;;
11185;SDS011;5649;52.422;13.754;2022-08-18T08:49:30;26.60;;;5.50;;
11185;SDS011;5649;52.422;13.754;2022-08-18T08:52:00;8.70;;;6.00;;
11185;SDS011;5649;52.422;13.754;2022-08-18T08:54:33;44.20;;;6.03;;
11185;SDS011;5649;52.422;13.754;2022-08-18T08:57:00;8.03;;;5.20;;
11185;SDS011;5649;52.422;13.754;2022-08-18T08:59:26;26.97;;;5.73;;
11185;SDS011;5649;52.422;13.754;2022-08-18T09:06:51;11.53;;;4.90;;
11185;SDS011;5649;52.422;13.754;2022-08-18T09:09:35;11.20;;;4.87;;
11185;SDS011;5649;52.422;13.754;2022-08-18T09:12:09;25.23;;;5.63;;
11185;SDS011;5649;52.422;13.754;2022-08-18T09:14:56;22.43;;;7.30;;
11185;SDS011;5649;52.422;13.754;2022-08-18T09:17:31;20.13;;;7.23;;
11185;SDS011;5649;52.422;13.754;2022-08-18T09:25:18;9.80;;;6.10;;
11185;SDS011;5649;52.422;13.754;2022-08-18T09:28:05;27.47;;;5.53;;
11185;SDS011;5649;52.422;13.754;2022-08-18T09:33:21;19.70;;;6.50;;
11185;SDS011;5649;52.422;13.754;2022-08-18T09:35:54;12.27;;;5.90;;
11185;SDS011;5649;52.422;13.754;2022-08-18T09:38:25;11.93;;;6.60;;
11185;SDS011;5649;52.422;13.754;2022-08-18T09:41:15;15.10;;;6.60;;
11185;SDS011;5649;52.422;13.754;2022-08-18T09:44:03;12.77;;;6.30;;
11185;SDS011;5649;52.422;13.754;2022-08-18T09:51:50;7.27;;;5.50;;
11185;SDS011;5649;52.422;13.754;2022-08-18T09:54:20;24.23;;;5.50;;
11185;SDS011;5649;52.422;13.754;2022-08-18T10:02:09;16.70;;;5.33;;
11185;SDS011;5649;52.422;13.754;2022-08-18T10:07:34;6.27;;;4.60;;
11185;SDS011;5649;52.422;13.754;2022-08-18T10:15:22;9.33;;;4.70;;
11185;SDS011;5649;52.422;13.754;2022-08-18T10:17:53;6.67;;;5.77;;
11185;SDS011;5649;52.422;13.754;2022-08-18T10:22:48;9.87;;;3.83;;
11185;SDS011;5649;52.422;13.754;2022-08-18T10:27:59;5.93;;;4.30;;
11185;SDS011;5649;52.422;13.754;2022-08-18T10:32:59;8.93;;;3.80;;
11185;SDS011;5649;52.422;13.754;2022-08-18T10:38:14;8.83;;;5.03;;
11185;SDS011;5649;52.422;13.754;2022-08-18T10:40:51;8.40;;;4.43;;
11185;SDS011;5649;52.422;13.754;2022-08-18T10:43:21;13.13;;;3.50;;
11185;SDS011;5649;52.422;13.754;2022-08-18T10:45:54;11.63;;;4.00;;
11185;SDS011;5649;52.422;13.754;2022-08-18T10:48:22;6.17;;;4.20;;
11185;SDS011;5649;52.422;13.754;2022-08-18T10:50:50;12.60;;;4.57;;
11185;SDS011;5649;52.422;13.754;2022-08-18T10:53:19;9.43;;;4.20;;
11185;SDS011;5649;52.422;13.754;2022-08-18T10:55:57;14.30;;;5.27;;
11185;SDS011;5649;52.422;13.754;2022-08-18T11:01:03;5.93;;;4.30;;
11185;SDS011;5649;52.422;13.754;2022-08-18T11:06:08;6.77;;;3.70;;
11185;SDS011;5649;52.422;13.754;2022-08-18T11:08:41;8.40;;;3.20;;
11185;SDS011;5649;52.422;13.754;2022-08-18T11:11:09;7.53;;;4.10;;
11185;SDS011;5649;52.422;13.754;2022-08-18T11:18:50;5.33;;;3.53;;
11185;SDS011;5649;52.422;13.754;2022-08-18T11:26:49;25.10;;;4.00;;
11185;SDS011;5649;52.422;13.754;2022-08-18T11:31:45;3.23;;;2.93;;
11185;SDS011;5649;52.422;13.754;2022-08-18T11:34:16;10.63;;;3.40;;
11185;SDS011;5649;52.422;13.754;2022-08-18T11:36:43;17.13;;;3.67;;
11185;SDS011;5649;52.422;13.754;2022-08-18T11:39:20;10.07;;;3.43;;
11185;SDS011;5649;52.422;13.754;2022-08-18T11:41:46;6.73;;;3.47;;
11185;SDS011;5649;52.422;13.754;2022-08-18T11:44:16;4.97;;;3.20;;
11185;SDS011;5649;52.422;13.754;2022-08-18T11:46:42;7.37;;;3.07;;
11185;SDS011;5649;52.422;13.754;2022-08-18T11:49:15;4.60;;;3.13;;
11185;SDS011;5649;52.422;13.754;2022-08-18T11:51:55;4.10;;;3.70;;
11185;SDS011;5649;52.422;13.754;2022-08-18T11:54:22;4.00;;;3.70;;
11185;SDS011;5649;52.422;13.754;2022-08-18T11:57:26;6.93;;;4.00;;
11185;SDS011;5649;52.422;13.754;2022-08-18T11:59:41;4.80;;;3.40;;
11185;SDS011;5649;52.422;13.754;2022-08-18T12:02:07;4.37;;;3.97;;
11185;SDS011;5649;52.422;13.754;2022-08-18T12:07:12;23.13;;;3.63;;
11185;SDS011;5649;52.422;13.754;2022-08-18T12:10:07;7.80;;;3.47;;
11185;SDS011;5649;52.422;13.754;2022-08-18T12:12:42;10.13;;;3.37;;
11185;SDS011;5649;52.422;13.754;2022-08-18T12:17:41;4.33;;;3.17;;
11185;SDS011;5649;52.422;13.754;2022-08-18T12:20:09;8.43;;;4.03;;
11185;SDS011;5649;52.422;13.754;2022-08-18T12:22:36;10.83;;;3.67;;
11185;SDS011;5649;52.422;13.754;2022-08-18T12:25:04;3.73;;;3.23;;
11185;SDS011;5649;52.422;13.754;2022-08-18T12:27:31;5.37;;;3.83;;
11185;SDS011;5649;52.422;13.754;2022-08-18T12:29:57;25.93;;;3.43;;
11185;SDS011;5649;52.422;13.754;2022-08-18T12:32:25;4.40;;;3.37;;
11185;SDS011;5649;52.422;13.754;2022-08-18T12:34:52;4.40;;;3.00;;
11185;SDS011;5649;52.422;13.754;2022-08-18T12:37:19;3.10;;;2.80;;
11185;SDS011;5649;52.422;13.754;2022-08-18T12:39:45;7.43;;;3.33;;
11185;SDS011;5649;52.422;13.754;2022-08-18T12:42:12;3.63;;;3.17;;
11185;SDS011;5649;52.422;13.754;2022-08-18T12:44:38;10.63;;;3.20;;
11185;SDS011;5649;52.422;13.754;2022-08-18T12:47:13;3.93;;;3.50;;
11185;SDS011;5649;52.422;13.754;2022-08-18T12:49:39;6.67;;;4.20;;
11185;SDS011;5649;52.422;13.754;2022-08-18T12:52:05;9.40;;;3.17;;
11185;SDS011;5649;52.422;13.754;2022-08-18T12:54:32;9.70;;;3.90;;
11185;SDS011;5649;52.422;13.754;2022-08-18T12:57:00;18.27;;;3.30;;
11185;SDS011;5649;52.422;13.754;2022-08-18T12:59:26;4.87;;;4.17;;
11185;SDS011;5649;52.422;13.754;2022-08-18T13:01:52;4.70;;;4.07;;
11185;SDS011;5649;52.422;13.754;2022-08-18T13:04:18;5.10;;;3.30;;
11185;SDS011;5649;52.422;13.754;2022-08-18T13:06:54;9.40;;;3.67;;
11185;SDS011;5649;52.422;13.754;2022-08-18T13:09:21;7.73;;;3.90;;
11185;SDS011;5649;52.422;13.754;2022-08-18T13:11:47;7.77;;;4.07;;
11185;SDS011;5649;52.422;13.754;2022-08-18T13:14:14;6.83;;;3.53;;
11185;SDS011;5649;52.422;13.754;2022-08-18T13:16:40;5.53;;;3.60;;
11185;SDS011;5649;52.422;13.754;2022-08-18T13:19:09;8.70;;;4.03;;
11185;SDS011;5649;52.422;13.754;2022-08-18T13:21:35;21.63;;;4.27;;
11185;SDS011;5649;52.422;13.754;2022-08-18T13:24:01;12.03;;;4.00;;
11185;SDS011;5649;52.422;13.754;2022-08-18T13:26:32;16.10;;;4.20;;
11185;SDS011;5649;52.422;13.754;2022-08-18T13:29:00;15.40;;;4.93;;
11185;SDS011;5649;52.422;13.754;2022-08-18T13:31:26;10.40;;;4.63;;
11185;SDS011;5649;52.422;13.754;2022-08-18T13:33:52;5.87;;;3.80;;
11185;SDS011;5649;52.422;13.754;2022-08-18T13:36:19;7.70;;;3.70;;
11185;SDS011;5649;52.422;13.754;2022-08-18T13:38:45;10.90;;;8.13;;
11185;SDS011;5649;52.422;13.754;2022-08-18T13:41:11;6.43;;;4.57;;
11185;SDS011;5649;52.422;13.754;2022-08-18T13:43:38;10.70;;;4.40;;
11185;SDS011;5649;52.422;13.754;2022-08-18T13:46:08;10.33;;;4.47;;
11185;SDS011;5649;52.422;13.754;2022-08-18T13:48:35;11.60;;;4.17;;
11185;SDS011;5649;52.422;13.754;2022-08-18T13:51:01;8.03;;;4.60;;
11185;SDS011;5649;52.422;13.754;2022-08-18T13:53:28;6.27;;;3.97;;
11185;SDS011;5649;52.422;13.754;2022-08-18T13:55:55;5.43;;;3.53;;
11185;SDS011;5649;52.422;13.754;2022-08-18T13:58:25;20.10;;;3.83;;
11185;SDS011;5649;52.422;13.754;2022-08-18T14:00:51;5.93;;;3.93;;
11185;SDS011;5649;52.422;13.754;2022-08-18T14:03:18;13.80;;;5.07;;
11185;SDS011;5649;52.422;13.754;2022-08-18T14:05:47;9.60;;;3.97;;
11185;SDS011;5649;52.422;13.754;2022-08-18T14:08:13;38.37;;;5.63;;
11185;SDS011;5649;52.422;13.754;2022-08-18T14:10:39;27.03;;;4.87;;
11185;SDS011;5649;52.422;13.754;2022-08-18T14:13:05;19.33;;;4.73;;
11185;SDS011;5649;52.422;13.754;2022-08-18T14:15:32;6.63;;;3.93;;
11185;SDS011;5649;52.422;13.754;2022-08-18T14:18:03;7.63;;;4.10;;
11185;SDS011;5649;52.422;13.754;2022-08-18T14:20:30;16.27;;;5.33;;
11185;SDS011;5649;52.422;13.754;2022-08-18T14:23:14;10.23;;;4.53;;
11185;SDS011;5649;52.422;13.754;2022-08-18T14:25:59;19.00;;;4.70;;
11185;SDS011;5649;52.422;13.754;2022-08-18T14:28:44;14.93;;;5.93;;
11185;SDS011;5649;52.422;13.754;2022-08-18T14:31:11;14.73;;;4.73;;
11185;SDS011;5649;52.422;13.754;2022-08-18T14:33:37;8.53;;;4.57;;
11185;SDS011;5649;52.422;13.754;2022-08-18T14:36:03;8.17;;;4.20;;
11185;SDS011;5649;52.422;13.754;2022-08-18T14:38:30;7.57;;;3.87;;
11185;SDS011;5649;52.422;13.754;2022-08-18T14:40:56;13.27;;;4.87;;
11185;SDS011;5649;52.422;13.754;2022-08-18T14:43:24;13.00;;;4.10;;
11185;SDS011;5649;52.422;13.754;2022-08-18T14:45:50;7.20;;;4.13;;
11185;SDS011;5649;52.422;13.754;2022-08-18T14:48:18;4.50;;;4.10;;
11185;SDS011;5649;52.422;13.754;2022-08-18T14:50:46;8.13;;;4.37;;
11185;SDS011;5649;52.422;13.754;2022-08-18T14:53:14;11.00;;;4.40;;
11185;SDS011;5649;52.422;13.754;2022-08-18T14:55:40;13.00;;;4.07;;
11185;SDS011;5649;52.422;13.754;2022-08-18T14:58:07;15.90;;;4.43;;
11185;SDS011;5649;52.422;13.754;2022-08-18T15:00:33;6.73;;;4.37;;
11185;SDS011;5649;52.422;13.754;2022-08-18T15:03:00;6.57;;;5.20;;
11185;SDS011;5649;52.422;13.754;2022-08-18T15:05:26;15.50;;;5.37;;
11185;SDS011;5649;52.422;13.754;2022-08-18T15:07:56;12.30;;;4.00;;
11185;SDS011;5649;52.422;13.754;2022-08-18T15:10:22;5.43;;;3.77;;
11185;SDS011;5649;52.422;13.754;2022-08-18T15:12:49;4.50;;;4.10;;
11185;SDS011;5649;52.422;13.754;2022-08-18T15:15:15;18.67;;;4.23;;
11185;SDS011;5649;52.422;13.754;2022-08-18T15:17:41;30.73;;;4.93;;
11185;SDS011;5649;52.422;13.754;2022-08-18T15:20:08;17.57;;;4.30;;
11185;SDS011;5649;52.422;13.754;2022-08-18T15:22:41;17.03;;;3.83;;
11185;SDS011;5649;52.422;13.754;2022-08-18T15:25:27;9.20;;;4.10;;
11185;SDS011;5649;52.422;13.754;2022-08-18T15:28:13;18.83;;;4.77;;
11185;SDS011;5649;52.422;13.754;2022-08-18T15:30:41;7.77;;;3.97;;
11185;SDS011;5649;52.422;13.754;2022-08-18T15:33:08;27.17;;;4.70;;
11185;SDS011;5649;52.422;13.754;2022-08-18T15:35:34;36.40;;;4.83;;
11185;SDS011;5649;52.422;13.754;2022-08-18T15:38:00;20.30;;;4.90;;
11185;SDS011;5649;52.422;13.754;2022-08-18T15:40:27;25.93;;;4.97;;
11185;SDS011;5649;52.422;13.754;2022-08-18T15:42:55;11.83;;;5.00;;
11185;SDS011;5649;52.422;13.754;2022-08-18T15:45:23;14.03;;;5.60;;
11185;SDS011;5649;52.422;13.754;2022-08-18T15:47:52;26.03;;;5.83;;
11185;SDS011;5649;52.422;13.754;2022-08-18T15:50:19;20.30;;;5.63;;
11185;SDS011;5649;52.422;13.754;2022-08-18T15:53:06;42.40;;;7.73;;
11185;SDS011;5649;52.422;13.754;2022-08-18T15:55:33;26.63;;;7.20;;
11185;SDS011;5649;52.422;13.754;2022-08-18T15:58:00;32.17;;;9.20;;
11185;SDS011;5649;52.422;13.754;2022-08-18T16:00:27;22.20;;;8.00;;
11185;SDS011;5649;52.422;13.754;2022-08-18T16:02:57;27.63;;;5.87;;
11185;SDS011;5649;52.422;13.754;2022-08-18T16:05:24;25.53;;;6.70;;
11185;SDS011;5649;52.422;13.754;2022-08-18T16:07:51;37.57;;;10.50;;
11185;SDS011;5649;52.422;13.754;2022-08-18T16:10:19;27.73;;;7.03;;
11185;SDS011;5649;52.422;13.754;2022-08-18T16:12:46;27.33;;;6.80;;
11185;SDS011;5649;52.422;13.754;2022-08-18T16:15:13;19.07;;;6.80;;
11185;SDS011;5649;52.422;13.754;2022-08-18T16:17:39;13.37;;;6.03;;
11185;SDS011;5649;52.422;13.754;2022-08-18T16:20:05;17.40;;;6.60;;
11185;SDS011;5649;52.422;13.754;2022-08-18T16:22:33;13.23;;;5.80;;
11185;SDS011;5649;52.422;13.754;2022-08-18T16:24:59;9.93;;;6.43;;
11185;SDS011;5649;52.422;13.754;2022-08-18T16:27:27;10.73;;;5.37;;
11185;SDS011;5649;52.422;13.754;2022-08-18T16:29:53;16.20;;;6.67;;
11185;SDS011;5649;52.422;13.754;2022-08-18T16:32:20;9.83;;;4.70;;
11185;SDS011;5649;52.422;13.754;2022-08-18T16:34:47;12.47;;;6.50;;
11185;SDS011;5649;52.422;13.754;2022-08-18T16:37:13;19.00;;;6.10;;
11185;SDS011;5649;52.422;13.754;2022-08-18T16:39:39;12.20;;;5.10;;
11185;SDS011;5649;52.422;13.754;2022-08-18T16:42:05;7.43;;;6.13;;
11185;SDS011;5649;52.422;13.754;2022-08-18T16:44:31;13.60;;;5.80;;
11185;SDS011;5649;52.422;13.754;2022-08-18T16:46:58;12.77;;;5.67;;
11185;SDS011;5649;52.422;13.754;2022-08-18T16:49:25;11.40;;;5.90;;
11185;SDS011;5649;52.422;13.754;2022-08-18T16:51:51;17.43;;;5.93;;
11185;SDS011;5649;52.422;13.754;2022-08-18T16:54:18;10.33;;;5.97;;
11185;SDS011;5649;52.422;13.754;2022-08-18T16:56:44;19.20;;;5.40;;
11185;SDS011;5649;52.422;13.754;2022-08-18T16:59:10;17.70;;;5.80;;